sensor_id;sensor_type;location;lat;lon;timestamp;pressure;altitude;pressure_sealevel;temperature;humidity
75775;BME280;64505;51.458;7.556;2023-06-22T00:00:32;100005.78;;;21.04;61.90
75775;BME280;64505;51.458;7.556;2023-06-22T00:02:33;100003.09;;;21.04;61.24
75775;BME280;64505;51.458;7.556;2023-06-22T00:04:35;99998.56;;;21.00;61.06
75775;BME280;64505;51.458;7.556;2023-06-22T00:06:37;99997.19;;;21.02;60.31
75775;BME280;64505;51.458;7.556;2023-06-22T00:08:38;100000.41;;;21.04;61.14
75775;BME280;64505;51.458;7.556;2023-06-22T00:10:40;99995.28;;;21.03;61.43
75775;BME280;64505;51.458;7.556;2023-06-22T00:12:42;99998.28;;;21.01;61.25
75775;BME280;64505;51.458;7.556;2023-06-22T00:14:43;100009.31;;;21.00;61.43
75775;BME280;64505;51.458;7.556;2023-06-22T00:16:45;100008.25;;;21.01;61.10
75775;BME280;64505;51.458;7.556;2023-06-22T00:18:49;100008.00;;;20.97;61.83
75775;BME280;64505;51.458;7.556;2023-06-22T00:20:51;100001.34;;;20.90;62.36
75775;BME280;64505;51.458;7.556;2023-06-22T00:22:59;100006.72;;;20.90;62.08
75775;BME280;64505;51.458;7.556;2023-06-22T00:25:03;100001.91;;;20.87;62.51
75775;BME280;64505;51.458;7.556;2023-06-22T00:27:05;99993.91;;;20.82;62.01
75775;BME280;64505;51.458;7.556;2023-06-22T00:29:07;99994.97;;;20.81;63.02
75775;BME280;64505;51.458;7.556;2023-06-22T00:31:09;99993.63;;;20.83;62.07
75775;BME280;64505;51.458;7.556;2023-06-22T00:33:10;99996.06;;;20.80;62.66
75775;BME280;64505;51.458;7.556;2023-06-22T00:35:12;99998.53;;;20.76;62.67
75775;BME280;64505;51.458;7.556;2023-06-22T00:37:14;99998.78;;;20.75;62.72
75775;BME280;64505;51.458;7.556;2023-06-22T00:39:15;99994.50;;;20.74;62.32
75775;BME280;64505;51.458;7.556;2023-06-22T00:41:18;100005.31;;;20.69;63.62
75775;BME280;64505;51.458;7.556;2023-06-22T00:43:19;100004.78;;;20.67;63.44
75775;BME280;64505;51.458;7.556;2023-06-22T00:45:22;100002.09;;;20.67;63.50
75775;BME280;64505;51.458;7.556;2023-06-22T00:47:24;99998.97;;;20.54;64.65
75775;BME280;64505;51.458;7.556;2023-06-22T00:49:26;99996.47;;;20.63;63.55
75775;BME280;64505;51.458;7.556;2023-06-22T00:51:28;100003.47;;;20.64;63.27
75775;BME280;64505;51.458;7.556;2023-06-22T00:53:30;100001.59;;;20.59;63.85
75775;BME280;64505;51.458;7.556;2023-06-22T00:55:45;100004.06;;;20.56;64.29
75775;BME280;64505;51.458;7.556;2023-06-22T00:57:53;99997.88;;;20.55;64.36
75775;BME280;64505;51.458;7.556;2023-06-22T00:59:57;99998.97;;;20.54;64.08
75775;BME280;64505;51.458;7.556;2023-06-22T01:01:59;99999.22;;;20.58;64.03
75775;BME280;64505;51.458;7.556;2023-06-22T01:04:01;99994.38;;;20.55;64.03
75775;BME280;64505;51.458;7.556;2023-06-22T01:06:09;99999.50;;;20.51;63.90
75775;BME280;64505;51.458;7.556;2023-06-22T01:12:52;99995.75;;;20.52;64.11
75775;BME280;64505;51.458;7.556;2023-06-22T01:15:10;99998.19;;;20.49;64.90
75775;BME280;64505;51.458;7.556;2023-06-22T01:17:14;99989.63;;;20.47;64.53
75775;BME280;64505;51.458;7.556;2023-06-22T01:21:43;99990.69;;;20.51;64.46
75775;BME280;64505;51.458;7.556;2023-06-22T01:26:34;99988.81;;;20.46;65.11
75775;BME280;64505;51.458;7.556;2023-06-22T01:28:47;99980.22;;;20.44;64.58
75775;BME280;64505;51.458;7.556;2023-06-22T01:30:50;99984.03;;;20.43;64.61
75775;BME280;64505;51.458;7.556;2023-06-22T01:33:05;99986.41;;;20.45;64.14
75775;BME280;64505;51.458;7.556;2023-06-22T01:35:08;99983.72;;;20.45;64.59
75775;BME280;64505;51.458;7.556;2023-06-22T01:37:10;99972.75;;;20.41;65.36
75775;BME280;64505;51.458;7.556;2023-06-22T01:39:12;99983.78;;;20.40;64.62
75775;BME280;64505;51.458;7.556;2023-06-22T01:41:16;99983.72;;;20.45;64.90
75775;BME280;64505;51.458;7.556;2023-06-22T01:43:21;99987.47;;;20.44;64.06
75775;BME280;64505;51.458;7.556;2023-06-22T01:45:24;99981.34;;;20.43;63.84
75775;BME280;64505;51.458;7.556;2023-06-22T01:47:27;99978.09;;;20.41;64.55
75775;BME280;64505;51.458;7.556;2023-06-22T01:49:30;99984.31;;;20.37;65.22
75775;BME280;64505;51.458;7.556;2023-06-22T01:51:32;99977.31;;;20.41;64.59
75775;BME280;64505;51.458;7.556;2023-06-22T01:53:33;99984.56;;;20.40;64.20
75775;BME280;64505;51.458;7.556;2023-06-22T01:55:35;99984.56;;;20.40;64.60
75775;BME280;64505;51.458;7.556;2023-06-22T01:57:37;99988.84;;;20.41;64.86
75775;BME280;64505;51.458;7.556;2023-06-22T02:01:55;99992.66;;;20.35;65.80
75775;BME280;64505;51.458;7.556;2023-06-22T02:04:06;99984.59;;;20.35;65.02
75775;BME280;64505;51.458;7.556;2023-06-22T02:06:40;99982.50;;;20.32;65.17
75775;BME280;64505;51.458;7.556;2023-06-22T02:08:49;99981.44;;;20.28;66.23
75775;BME280;64505;51.458;7.556;2023-06-22T02:10:53;99980.63;;;20.28;65.59
75775;BME280;64505;51.458;7.556;2023-06-22T02:12:57;99983.06;;;20.29;65.61
75775;BME280;64505;51.458;7.556;2023-06-22T02:15:00;99976.88;;;20.29;65.59
75775;BME280;64505;51.458;7.556;2023-06-22T02:17:03;99969.88;;;20.28;65.27
75775;BME280;64505;51.458;7.556;2023-06-22T02:19:09;99968.53;;;20.25;65.73
75775;BME280;64505;51.458;7.556;2023-06-22T02:21:10;99978.50;;;20.20;66.49
75775;BME280;64505;51.458;7.556;2023-06-22T02:23:12;99975.81;;;20.20;65.49
75775;BME280;64505;51.458;7.556;2023-06-22T02:25:14;99972.63;;;20.18;66.44
75775;BME280;64505;51.458;7.556;2023-06-22T02:27:16;99971.56;;;20.13;67.01
75775;BME280;64505;51.458;7.556;2023-06-22T02:29:17;99971.84;;;20.12;66.35
75775;BME280;64505;51.458;7.556;2023-06-22T02:31:19;99967.31;;;20.07;66.76
75775;BME280;64505;51.458;7.556;2023-06-22T02:33:21;99971.34;;;20.10;65.83
75775;BME280;64505;51.458;7.556;2023-06-22T02:35:23;99967.84;;;20.09;66.55
75775;BME280;64505;51.458;7.556;2023-06-22T02:37:25;99958.47;;;20.07;66.67
75775;BME280;64505;51.458;7.556;2023-06-22T02:39:31;99963.03;;;20.06;65.95
75775;BME280;64505;51.458;7.556;2023-06-22T02:41:32;99956.63;;;20.02;67.06
75775;BME280;64505;51.458;7.556;2023-06-22T02:43:34;99951.00;;;19.99;67.17
75775;BME280;64505;51.458;7.556;2023-06-22T02:45:35;99955.81;;;19.97;67.33
75775;BME280;64505;51.458;7.556;2023-06-22T02:47:37;99952.88;;;19.98;66.88
75775;BME280;64505;51.458;7.556;2023-06-22T02:49:39;99954.25;;;19.96;66.64
75775;BME280;64505;51.458;7.556;2023-06-22T02:51:44;99949.44;;;19.93;67.27
75775;BME280;64505;51.458;7.556;2023-06-22T02:53:46;99956.13;;;19.90;67.26
75775;BME280;64505;51.458;7.556;2023-06-22T02:55:48;99944.34;;;19.91;66.75
75775;BME280;64505;51.458;7.556;2023-06-22T02:57:50;99952.13;;;19.88;67.22
75775;BME280;64505;51.458;7.556;2023-06-22T02:59:54;99953.50;;;19.85;67.87
75775;BME280;64505;51.458;7.556;2023-06-22T03:01:56;99954.31;;;19.81;68.22
75775;BME280;64505;51.458;7.556;2023-06-22T03:03:58;99952.72;;;19.80;68.24
75775;BME280;64505;51.458;7.556;2023-06-22T03:06:00;99954.34;;;19.76;68.62
75775;BME280;64505;51.458;7.556;2023-06-22T03:08:04;99949.53;;;19.73;68.65
75775;BME280;64505;51.458;7.556;2023-06-22T03:10:08;99946.59;;;19.69;69.34
75775;BME280;64505;51.458;7.556;2023-06-22T03:12:10;99948.47;;;19.69;69.64
75775;BME280;64505;51.458;7.556;2023-06-22T03:14:12;99944.47;;;19.66;69.56
75775;BME280;64505;51.458;7.556;2023-06-22T03:16:14;99938.31;;;19.65;68.87
75775;BME280;64505;51.458;7.556;2023-06-22T03:18:15;99937.53;;;19.60;69.29
75775;BME280;64505;51.458;7.556;2023-06-22T03:20:20;99938.06;;;19.62;68.48
75775;BME280;64505;51.458;7.556;2023-06-22T03:22:22;99936.44;;;19.61;68.64
75775;BME280;64505;51.458;7.556;2023-06-22T03:24:23;99930.31;;;19.60;68.98
75775;BME280;64505;51.458;7.556;2023-06-22T03:26:25;99935.38;;;19.62;69.01
75775;BME280;64505;51.458;7.556;2023-06-22T03:28:28;99935.91;;;19.64;68.84
75775;BME280;64505;51.458;7.556;2023-06-22T03:30:30;99935.38;;;19.62;67.97
75775;BME280;64505;51.458;7.556;2023-06-22T03:32:32;99936.97;;;19.63;68.37
75775;BME280;64505;51.458;7.556;2023-06-22T03:34:33;99932.69;;;19.62;68.71
75775;BME280;64505;51.458;7.556;2023-06-22T03:36:39;99939.13;;;19.61;69.12
75775;BME280;64505;51.458;7.556;2023-06-22T03:38:41;99937.81;;;19.53;69.73
75775;BME280;64505;51.458;7.556;2023-06-22T03:40:43;99936.19;;;19.57;68.69
75775;BME280;64505;51.458;7.556;2023-06-22T03:42:45;99932.44;;;19.58;69.97
75775;BME280;64505;51.458;7.556;2023-06-22T03:44:47;99937.81;;;19.53;69.61
75775;BME280;64505;51.458;7.556;2023-06-22T03:46:49;99932.69;;;19.62;69.04
75775;BME280;64505;51.458;7.556;2023-06-22T03:48:51;99931.38;;;19.59;69.45
75775;BME280;64505;51.458;7.556;2023-06-22T03:50:52;99933.75;;;19.66;69.99
75775;BME280;64505;51.458;7.556;2023-06-22T03:52:54;99932.38;;;19.69;69.05
75775;BME280;64505;51.458;7.556;2023-06-22T03:54:56;99939.34;;;19.70;70.22
75775;BME280;64505;51.458;7.556;2023-06-22T03:56:58;99936.13;;;19.73;69.92
75775;BME280;64505;51.458;7.556;2023-06-22T03:59:00;99938.78;;;19.78;68.93
75775;BME280;64505;51.458;7.556;2023-06-22T04:01:01;99934.22;;;19.78;69.97
75775;BME280;64505;51.458;7.556;2023-06-22T04:03:03;99924.53;;;19.82;69.04
75775;BME280;64505;51.458;7.556;2023-06-22T04:05:05;99924.53;;;19.82;69.06
75775;BME280;64505;51.458;7.556;2023-06-22T04:07:07;99923.69;;;19.87;67.88
75775;BME280;64505;51.458;7.556;2023-06-22T04:09:09;99918.31;;;19.92;68.83
75775;BME280;64505;51.458;7.556;2023-06-22T04:11:11;99916.41;;;19.92;68.55
75775;BME280;64505;51.458;7.556;2023-06-22T04:13:13;99915.84;;;19.95;68.15
75775;BME280;64505;51.458;7.556;2023-06-22T04:15:14;99911.00;;;19.97;69.25
75775;BME280;64505;51.458;7.556;2023-06-22T04:17:16;99910.72;;;19.99;69.29
75775;BME280;64505;51.458;7.556;2023-06-22T04:19:19;99915.28;;;20.03;67.98
75775;BME280;64505;51.458;7.556;2023-06-22T04:21:20;99917.97;;;20.03;68.85
75775;BME280;64505;51.458;7.556;2023-06-22T04:23:22;99924.38;;;20.07;69.98
75775;BME280;64505;51.458;7.556;2023-06-22T04:25:24;99927.00;;;20.12;70.37
75775;BME280;64505;51.458;7.556;2023-06-22T04:27:25;99925.63;;;20.15;68.90
75775;BME280;64505;51.458;7.556;2023-06-22T04:29:27;99921.84;;;20.21;68.03
75775;BME280;64505;51.458;7.556;2023-06-22T04:31:34;99922.66;;;20.22;70.18
75775;BME280;64505;51.458;7.556;2023-06-22T04:33:38;99925.28;;;20.27;68.39
75775;BME280;64505;51.458;7.556;2023-06-22T04:35:44;99930.13;;;20.30;69.68
75775;BME280;64505;51.458;7.556;2023-06-22T04:37:46;99928.78;;;20.32;69.30
75775;BME280;64505;51.458;7.556;2023-06-22T04:39:49;99923.88;;;20.39;69.54
75775;BME280;64505;51.458;7.556;2023-06-22T04:41:51;99926.81;;;20.43;68.62
75775;BME280;64505;51.458;7.556;2023-06-22T04:43:53;99923.06;;;20.39;68.77
75775;BME280;64505;51.458;7.556;2023-06-22T04:45:56;99926.91;;;20.33;69.39
75775;BME280;64505;51.458;7.556;2023-06-22T04:47:58;99931.16;;;20.34;68.11
75775;BME280;64505;51.458;7.556;2023-06-22T04:50:00;99936.19;;;20.40;68.09
75775;BME280;64505;51.458;7.556;2023-06-22T04:52:09;99939.75;;;20.36;68.77
75775;BME280;64505;51.458;7.556;2023-06-22T04:54:11;99947.56;;;20.32;70.65
75775;BME280;64505;51.458;7.556;2023-06-22T04:56:12;99949.97;;;20.34;69.96
75775;BME280;64505;51.458;7.556;2023-06-22T04:58:14;99940.25;;;20.38;69.40
75775;BME280;64505;51.458;7.556;2023-06-22T05:00:17;99945.94;;;20.36;70.19
75775;BME280;64505;51.458;7.556;2023-06-22T05:02:20;99950.19;;;20.37;69.61
75775;BME280;64505;51.458;7.556;2023-06-22T05:04:22;99949.41;;;20.37;69.65
75775;BME280;64505;51.458;7.556;2023-06-22T05:06:27;99938.72;;;20.32;70.34
75775;BME280;64505;51.458;7.556;2023-06-22T05:08:29;99931.16;;;20.34;70.80
75775;BME280;64505;51.458;7.556;2023-06-22T05:10:30;99931.47;;;20.32;70.88
75775;BME280;64505;51.458;7.556;2023-06-22T05:12:32;99941.41;;;20.27;70.66
75775;BME280;64505;51.458;7.556;2023-06-22T05:14:34;99941.44;;;20.22;73.25
75775;BME280;64505;51.458;7.556;2023-06-22T05:16:40;99947.91;;;20.21;72.54
75775;BME280;64505;51.458;7.556;2023-06-22T05:18:42;99947.06;;;20.25;74.28
75775;BME280;64505;51.458;7.556;2023-06-22T05:20:45;99944.66;;;20.24;73.46
75775;BME280;64505;51.458;7.556;2023-06-22T05:22:46;99946.81;;;20.22;74.67
75775;BME280;64505;51.458;7.556;2023-06-22T05:24:48;99941.78;;;20.10;74.64
75775;BME280;64505;51.458;7.556;2023-06-22T05:26:50;99940.66;;;20.16;74.30
75775;BME280;64505;51.458;7.556;2023-06-22T05:28:51;99932.06;;;20.19;73.93
75775;BME280;64505;51.458;7.556;2023-06-22T05:30:53;99937.19;;;20.15;75.76
75775;BME280;64505;51.458;7.556;2023-06-22T05:32:55;99937.19;;;20.15;76.75
75775;BME280;64505;51.458;7.556;2023-06-22T05:34:56;99938.22;;;20.20;75.91
75775;BME280;64505;51.458;7.556;2023-06-22T05:36:58;99935.53;;;20.20;76.59
75775;BME280;64505;51.458;7.556;2023-06-22T05:39:11;99933.69;;;20.15;76.64
75775;BME280;64505;51.458;7.556;2023-06-22T05:41:14;99926.53;;;20.05;76.69
75775;BME280;64505;51.458;7.556;2023-06-22T05:43:15;99931.81;;;20.15;75.61
75775;BME280;64505;51.458;7.556;2023-06-22T05:45:17;99931.78;;;20.21;76.74
75775;BME280;64505;51.458;7.556;2023-06-22T05:47:21;99932.28;;;20.23;76.62
75775;BME280;64505;51.458;7.556;2023-06-22T05:49:24;99931.78;;;20.21;76.56
75775;BME280;64505;51.458;7.556;2023-06-22T05:51:31;99924.53;;;20.21;75.36
75775;BME280;64505;51.458;7.556;2023-06-22T05:53:32;99926.91;;;20.28;74.79
75775;BME280;64505;51.458;7.556;2023-06-22T05:55:34;99930.16;;;20.20;76.49
75775;BME280;64505;51.458;7.556;2023-06-22T05:57:36;99927.16;;;20.31;75.30
75775;BME280;64505;51.458;7.556;2023-06-22T05:59:37;99938.13;;;20.40;76.42
75775;BME280;64505;51.458;7.556;2023-06-22T06:01:39;99932.75;;;20.40;75.26
75775;BME280;64505;51.458;7.556;2023-06-22T06:03:41;99941.53;;;20.45;76.26
75775;BME280;64505;51.458;7.556;2023-06-22T06:05:43;99949.59;;;20.45;76.09
75775;BME280;64505;51.458;7.556;2023-06-22T06:07:46;99951.78;;;20.43;75.21
75775;BME280;64505;51.458;7.556;2023-06-22T06:09:48;99955.78;;;20.46;75.37
75775;BME280;64505;51.458;7.556;2023-06-22T06:11:50;99953.91;;;20.46;76.54
75775;BME280;64505;51.458;7.556;2023-06-22T06:13:51;99953.34;;;20.49;76.23
75775;BME280;64505;51.458;7.556;2023-06-22T06:15:53;99952.50;;;20.54;76.07
75775;BME280;64505;51.458;7.556;2023-06-22T06:17:58;99943.63;;;20.53;76.96
75775;BME280;64505;51.458;7.556;2023-06-22T06:20:01;99945.19;;;20.59;76.28
75775;BME280;64505;51.458;7.556;2023-06-22T06:22:03;99934.66;;;20.63;78.27
75775;BME280;64505;51.458;7.556;2023-06-22T06:24:05;99934.66;;;20.63;75.28
75775;BME280;64505;51.458;7.556;2023-06-22T06:26:07;99926.69;;;20.82;74.86
75775;BME280;64505;51.458;7.556;2023-06-22T06:28:09;99925.84;;;20.86;75.05
75775;BME280;64505;51.458;7.556;2023-06-22T06:30:11;99928.78;;;20.90;74.92
75775;BME280;64505;51.458;7.556;2023-06-22T06:32:13;99925.75;;;20.96;75.37
75775;BME280;64505;51.458;7.556;2023-06-22T06:34:15;99927.59;;;21.01;74.79
75775;BME280;64505;51.458;7.556;2023-06-22T06:36:17;99929.69;;;21.04;76.41
75775;BME280;64505;51.458;7.556;2023-06-22T06:38:18;99927.72;;;21.09;75.40
75775;BME280;64505;51.458;7.556;2023-06-22T06:40:20;99919.94;;;21.13;75.65
75775;BME280;64505;51.458;7.556;2023-06-22T06:42:22;99920.56;;;21.29;75.09
75775;BME280;64505;51.458;7.556;2023-06-22T06:44:25;99915.66;;;21.31;74.45
75775;BME280;64505;51.458;7.556;2023-06-22T06:46:27;99927.25;;;21.31;75.61
75775;BME280;64505;51.458;7.556;2023-06-22T06:48:29;99924.59;;;21.50;75.09
75775;BME280;64505;51.458;7.556;2023-06-22T06:50:30;99928.81;;;21.56;74.30
75775;BME280;64505;51.458;7.556;2023-06-22T06:52:33;99930.63;;;21.60;74.48
75775;BME280;64505;51.458;7.556;2023-06-22T06:54:36;99926.50;;;21.68;75.18
75775;BME280;64505;51.458;7.556;2023-06-22T06:56:38;99915.00;;;21.81;74.14
75775;BME280;64505;51.458;7.556;2023-06-22T06:58:42;99920.69;;;21.80;74.83
75775;BME280;64505;51.458;7.556;2023-06-22T07:00:46;99921.13;;;21.87;73.57
75775;BME280;64505;51.458;7.556;2023-06-22T07:02:48;99921.41;;;21.85;74.37
75775;BME280;64505;51.458;7.556;2023-06-22T07:04:50;99920.63;;;21.85;73.67
75775;BME280;64505;51.458;7.556;2023-06-22T07:06:52;99922.50;;;21.84;75.43
75775;BME280;64505;51.458;7.556;2023-06-22T07:08:54;99925.56;;;21.96;74.08
75775;BME280;64505;51.458;7.556;2023-06-22T07:10:56;99924.41;;;21.84;73.87
75775;BME280;64505;51.458;7.556;2023-06-22T07:12:58;99925.69;;;21.86;74.25
75775;BME280;64505;51.458;7.556;2023-06-22T07:15:04;99919.47;;;21.91;72.99
75775;BME280;64505;51.458;7.556;2023-06-22T07:17:06;99912.53;;;21.85;74.08
75775;BME280;64505;51.458;7.556;2023-06-22T07:19:08;99924.09;;;21.85;73.85
75775;BME280;64505;51.458;7.556;2023-06-22T07:21:10;99921.84;;;21.74;75.46
75775;BME280;64505;51.458;7.556;2023-06-22T07:23:12;99925.41;;;21.69;75.93
75775;BME280;64505;51.458;7.556;2023-06-22T07:25:14;99917.56;;;21.73;75.96
75775;BME280;64505;51.458;7.556;2023-06-22T07:27:17;99913.25;;;21.53;76.94
75775;BME280;64505;51.458;7.556;2023-06-22T07:29:22;99905.69;;;21.55;76.77
75775;BME280;64505;51.458;7.556;2023-06-22T07:31:24;99904.84;;;21.59;78.27
75775;BME280;64505;51.458;7.556;2023-06-22T07:33:26;99902.50;;;21.72;76.80
75775;BME280;64505;51.458;7.556;2023-06-22T07:35:33;99900.31;;;21.74;77.27
75775;BME280;64505;51.458;7.556;2023-06-22T07:37:35;99905.13;;;21.77;77.12
75775;BME280;64505;51.458;7.556;2023-06-22T07:39:36;99896.25;;;21.76;75.65
75775;BME280;64505;51.458;7.556;2023-06-22T07:41:39;99894.25;;;21.82;76.97
75775;BME280;64505;51.458;7.556;2023-06-22T07:43:44;99902.66;;;21.80;76.83
75775;BME280;64505;51.458;7.556;2023-06-22T07:45:49;99905.16;;;21.95;76.80
75775;BME280;64505;51.458;7.556;2023-06-22T07:47:53;99893.16;;;22.20;75.09
75775;BME280;64505;51.458;7.556;2023-06-22T07:49:58;99890.91;;;22.41;74.28
75775;BME280;64505;51.458;7.556;2023-06-22T07:52:02;99883.06;;;22.58;73.80
75775;BME280;64505;51.458;7.556;2023-06-22T07:54:08;99883.59;;;22.60;73.14
75775;BME280;64505;51.458;7.556;2023-06-22T07:56:10;99875.94;;;22.67;72.97
75775;BME280;64505;51.458;7.556;2023-06-22T07:58:12;99876.41;;;22.69;73.33
75775;BME280;64505;51.458;7.556;2023-06-22T08:00:14;99878.72;;;22.76;74.27
75775;BME280;64505;51.458;7.556;2023-06-22T08:02:17;99875.53;;;22.74;72.96
75775;BME280;64505;51.458;7.556;2023-06-22T08:04:18;99870.06;;;22.79;72.65
75775;BME280;64505;51.458;7.556;2023-06-22T08:06:20;99864.66;;;22.79;72.94
75775;BME280;64505;51.458;7.556;2023-06-22T08:08:23;99863.13;;;22.86;72.43
75775;BME280;64505;51.458;7.556;2023-06-22T08:10:25;99863.97;;;23.00;73.58
75775;BME280;64505;51.458;7.556;2023-06-22T08:12:27;99852.06;;;23.01;73.20
75775;BME280;64505;51.458;7.556;2023-06-22T08:14:29;99851.06;;;23.11;71.70
75775;BME280;64505;51.458;7.556;2023-06-22T08:16:31;99852.28;;;23.41;71.95
75775;BME280;64505;51.458;7.556;2023-06-22T08:18:33;99847.63;;;23.46;70.95
75775;BME280;64505;51.458;7.556;2023-06-22T08:20:34;99858.47;;;23.69;70.14
75775;BME280;64505;51.458;7.556;2023-06-22T08:22:36;99852.63;;;23.75;70.07
75775;BME280;64505;51.458;7.556;2023-06-22T08:24:38;99848.97;;;23.93;68.79
75775;BME280;64505;51.458;7.556;2023-06-22T08:26:39;99860.50;;;24.08;70.35
75775;BME280;64505;51.458;7.556;2023-06-22T08:28:41;99856.13;;;24.20;70.22
75775;BME280;64505;51.458;7.556;2023-06-22T08:30:43;99855.53;;;24.54;68.22
75775;BME280;64505;51.458;7.556;2023-06-22T08:32:44;99847.94;;;24.56;67.33
75775;BME280;64505;51.458;7.556;2023-06-22T08:34:46;99844.53;;;24.81;66.40
75775;BME280;64505;51.458;7.556;2023-06-22T08:36:48;99851.25;;;24.84;67.66
75775;BME280;64505;51.458;7.556;2023-06-22T08:38:53;99837.81;;;24.79;68.21
75775;BME280;64505;51.458;7.556;2023-06-22T08:40:55;99842.25;;;24.66;68.29
75775;BME280;64505;51.458;7.556;2023-06-22T08:42:57;99840.13;;;24.55;67.48
75775;BME280;64505;51.458;7.556;2023-06-22T08:44:58;99835.16;;;24.48;67.26
75775;BME280;64505;51.458;7.556;2023-06-22T08:47:00;99842.94;;;24.49;67.85
75775;BME280;64505;51.458;7.556;2023-06-22T08:49:08;99837.69;;;24.44;67.42
75775;BME280;64505;51.458;7.556;2023-06-22T08:51:11;99838.50;;;24.54;68.18
75775;BME280;64505;51.458;7.556;2023-06-22T08:53:12;99830.84;;;24.78;69.64
75775;BME280;64505;51.458;7.556;2023-06-22T08:55:14;99837.38;;;24.85;68.43
75775;BME280;64505;51.458;7.556;2023-06-22T08:57:16;99832.31;;;24.92;67.09
75775;BME280;64505;51.458;7.556;2023-06-22T08:59:17;99831.56;;;25.18;66.11
75775;BME280;64505;51.458;7.556;2023-06-22T09:01:19;99828.84;;;25.01;68.16
75775;BME280;64505;51.458;7.556;2023-06-22T09:03:20;99819.41;;;24.89;67.71
75775;BME280;64505;51.458;7.556;2023-06-22T09:05:22;99817.22;;;25.00;69.32
75775;BME280;64505;51.458;7.556;2023-06-22T09:07:24;99808.50;;;25.03;67.72
75775;BME280;64505;51.458;7.556;2023-06-22T09:09:27;99814.84;;;25.07;67.80
75775;BME280;64505;51.458;7.556;2023-06-22T09:11:28;99807.53;;;25.16;68.50
75775;BME280;64505;51.458;7.556;2023-06-22T09:13:30;99809.47;;;25.24;68.53
75775;BME280;64505;51.458;7.556;2023-06-22T09:15:33;99807.72;;;25.37;68.49
75775;BME280;64505;51.458;7.556;2023-06-22T09:17:36;99809.16;;;25.43;67.66
75775;BME280;64505;51.458;7.556;2023-06-22T09:19:38;99815.41;;;25.52;65.67
75775;BME280;64505;51.458;7.556;2023-06-22T09:21:40;99807.09;;;25.48;67.15
75775;BME280;64505;51.458;7.556;2023-06-22T09:23:41;99812.38;;;25.62;67.55
75775;BME280;64505;51.458;7.556;2023-06-22T09:25:43;99809.34;;;25.55;66.01
75775;BME280;64505;51.458;7.556;2023-06-22T09:27:44;99806.00;;;25.58;67.00
75775;BME280;64505;51.458;7.556;2023-06-22T09:29:46;99806.78;;;25.93;66.08
75775;BME280;64505;51.458;7.556;2023-06-22T09:31:48;99800.66;;;26.05;66.87
75775;BME280;64505;51.458;7.556;2023-06-22T09:33:49;99797.66;;;26.06;66.42
75775;BME280;64505;51.458;7.556;2023-06-22T09:35:54;99799.09;;;26.04;66.25
75775;BME280;64505;51.458;7.556;2023-06-22T09:37:55;99793.66;;;26.21;65.13
75775;BME280;64505;51.458;7.556;2023-06-22T09:39:57;99800.63;;;26.30;64.52
75775;BME280;64505;51.458;7.556;2023-06-22T09:41:59;99795.41;;;26.25;65.68
75775;BME280;64505;51.458;7.556;2023-06-22T09:44:01;99790.81;;;26.55;64.63
75775;BME280;64505;51.458;7.556;2023-06-22T09:46:03;99781.41;;;26.53;64.99
75775;BME280;64505;51.458;7.556;2023-06-22T09:48:05;99769.94;;;26.47;65.84
75775;BME280;64505;51.458;7.556;2023-06-22T09:50:07;99773.63;;;26.42;65.30
75775;BME280;64505;51.458;7.556;2023-06-22T09:52:09;99763.75;;;26.38;64.77
75775;BME280;64505;51.458;7.556;2023-06-22T09:54:12;99763.22;;;26.53;64.66
75775;BME280;64505;51.458;7.556;2023-06-22T09:56:14;99758.88;;;26.61;64.25
75775;BME280;64505;51.458;7.556;2023-06-22T09:58:16;99759.09;;;26.76;63.83
75775;BME280;64505;51.458;7.556;2023-06-22T10:00:18;99758.91;;;26.81;64.00
75775;BME280;64505;51.458;7.556;2023-06-22T10:02:20;99757.53;;;26.67;64.00
75775;BME280;64505;51.458;7.556;2023-06-22T10:04:23;99754.97;;;27.00;64.11
75775;BME280;64505;51.458;7.556;2023-06-22T10:06:26;99744.72;;;27.26;63.35
75775;BME280;64505;51.458;7.556;2023-06-22T10:08:28;99759.00;;;27.35;62.79
75775;BME280;64505;51.458;7.556;2023-06-22T10:10:29;99758.81;;;27.61;61.87
75775;BME280;64505;51.458;7.556;2023-06-22T10:12:31;99753.75;;;27.71;62.06
75775;BME280;64505;51.458;7.556;2023-06-22T10:14:33;99752.88;;;27.79;61.42
75775;BME280;64505;51.458;7.556;2023-06-22T10:16:36;99756.03;;;27.69;61.00
75775;BME280;64505;51.458;7.556;2023-06-22T10:18:37;99750.13;;;27.67;60.13
75775;BME280;64505;51.458;7.556;2023-06-22T10:20:39;99755.94;;;27.90;60.57
75775;BME280;64505;51.458;7.556;2023-06-22T10:22:42;99754.91;;;27.82;60.51
75775;BME280;64505;51.458;7.556;2023-06-22T10:24:43;99751.22;;;27.99;60.14
75775;BME280;64505;51.458;7.556;2023-06-22T10:26:46;99753.09;;;28.19;60.62
75775;BME280;64505;51.458;7.556;2023-06-22T10:28:47;99740.44;;;28.35;59.87
75775;BME280;64505;51.458;7.556;2023-06-22T10:30:51;99738.81;;;28.59;59.56
75775;BME280;64505;51.458;7.556;2023-06-22T10:32:52;99735.09;;;28.75;59.29
75775;BME280;64505;51.458;7.556;2023-06-22T10:34:54;99735.75;;;28.72;59.85
75775;BME280;64505;51.458;7.556;2023-06-22T10:36:59;99724.19;;;28.51;58.80
75775;BME280;64505;51.458;7.556;2023-06-22T10:39:01;99719.56;;;28.52;60.05
75775;BME280;64505;51.458;7.556;2023-06-22T10:41:04;99716.38;;;28.62;58.72
75775;BME280;64505;51.458;7.556;2023-06-22T10:43:05;99713.66;;;28.38;58.61
75775;BME280;64505;51.458;7.556;2023-06-22T10:45:08;99709.59;;;28.31;60.06
75775;BME280;64505;51.458;7.556;2023-06-22T10:47:10;99719.31;;;28.08;59.62
75775;BME280;64505;51.458;7.556;2023-06-22T10:49:12;99715.38;;;28.18;59.20
75775;BME280;64505;51.458;7.556;2023-06-22T10:51:14;99711.97;;;28.21;59.05
75775;BME280;64505;51.458;7.556;2023-06-22T10:53:16;99707.28;;;27.97;58.97
75775;BME280;64505;51.458;7.556;2023-06-22T10:55:17;99701.75;;;28.06;59.06
75775;BME280;64505;51.458;7.556;2023-06-22T10:57:19;99703.50;;;27.89;59.35
75775;BME280;64505;51.458;7.556;2023-06-22T10:59:21;99699.34;;;27.92;59.13
75775;BME280;64505;51.458;7.556;2023-06-22T11:01:25;99697.63;;;27.87;59.18